Ala Coushatta Ind Res, Texas
Current Conditions -  °F | °C
As of 12:35 PM on Friday 31 Oct 2014 (Local Time) from K6R3 Reporting Station
Clear Clear  
Wind Chill: 73°   Ceiling: Unl
Heat Index: 73°   Visibility: 7mi
Dew Point: 50°   Wind: 12mph
Humidity: 43%   Direction: 340°NNW
Pressure: 30.2"   Gusts: 18mph
Location:  30.7078°N, 94.8036°W
Report Text: K6R3 311735Z AUTO 34010G16KT 7SM CLR 23/10 A3020 RMK AO2 T02300098
Loading
Personal Weather Stations






























Interactive Weather Map
Tropical Storm Tracking
New forecast layout! Learn more

10-Day Weather Forecast

Advertisements
Track Severe Weather on mobile